Current Conditions

Updated: 16-Jan-2018 10:58 AM  
Summary / Temperature Wind Rain






Feels like: 51°F

1-hour difference
0.9°F 0.9°F warmer than last hour.

24-hour difference
4.6°F4.6°F colder than yesterday at this time.

  Today Yesterday
High: 50.6°F
10:57 AM
62.8°F
3:29 PM
Low: 45.9°F
12:40 AM
40.3°F
7:19 AM
Calm SE
0.0
Gust:  0.0 mph
0 Beaufort - Calm

Today: 4.6 - 2:05 AM
Month: 11.5 mph - Jan 10
Rain Today: 0.01 in
Current Rate (/hr): 0.000 in
Max Rate (/hr):
Rain Yesterday: 0.01 in
Storm Rain: 0.00 in
This Month: 0.81 in
Season Total: 1.54 in
Last Rain Event: Today
Humidity / Barometer Sun / Moon
Humidity: 97  
Dew Point: 49.8°F Increased 0.9°F in the last hour.
Barometer: 30.279 inHg  
Baro Trend: Steady
Sunrise: 7:06 AM
Sunset: 5:05 PM
Moonrise: 6:42 AM
Moonset: 4:07 PM
Sky Conditions UV Index
Summary: Fog, Overcast
Visibility: ¼ mile
Clouds: Overcast @ 100 ft
KVIS - 9:56 AM PST
Current: 1.0  Low 
Tuesday: 2.2  Low 
Wednesday: 2.3  Low 
Air Quality Fire Danger
 Moderate 
Ozone 3 ppb
PM 2.5 19 μg/m3
10:50 AM PST
Current: 0  Low 

Local Alerts Local Forecast
Local NWS Alerts
Today

Partly
Cloudy
High 63
Tonight

Partly
Cloudy
Low 42
Wed

Partly
Cloudy
High 63
Wed night

Partly
Cloudy
Low 44
Thu

Chance of
Rain
High 64
Thu night

Rain

Low 44
Fri

Rain

High 56

Local Radar Local Satellite Neighborhood Cam Sky Cam
Local Radar Local Satellite Neighborhood Cam Sky Cam


Nearby Personal Stations

Weather Underground PWS KCAEXETE7     Weather Underground PWS KCAEXETE6     Weather Underground PWS KCAEXETE11

Nearby Airport Stations

KVIS - Visalia, California, USA
Distance from station: W 14mi, 23km
Updated: Tue, 16-Jan-2018 9:56am PST
Fog, Overcast
Fog, Overcast
 Wind from WSW
Wind: WSW 3 mph , 6 km/h
Temperature: 46°F , 8°C
Dew Point: 46°F , 8°C
Humidity: 100%
Barometer: 30.27 inHg , 1025.1 hPa
Summary: Fog
Clouds: Overcast
Visibility: 1/4 mile , 2 km
Cloud details: Overcast 100 ft
2018/01/16 17:56 KVIS 161756Z AUTO 25003KT 1/4SM FG OVC001 08/08 A3027 RMK AO2 SLP259 T00830083 10089 20072 53019
KPTV - Porterville, California, USA
Distance from station: SSE 19mi, 31km
Updated: Tue, 16-Jan-2018 9:56am PST
Light rain, Fog, Overcast
Light rain, Fog, Overcast
 Wind from W
Wind: W 8 mph , 13 km/h
Temperature: 48°F , 9°C
Wind Chill: 44°F , 7°C
Dew Point: 48°F , 9°C
Humidity: 100%
Barometer: 30.27 inHg , 1025.1 hPa
Summary: Light rain, Fog
Clouds: Overcast
Visibility: less than 1/4 mile , 2 km
Cloud details: Overcast 200 ft
2018/01/16 17:56 KPTV 161756Z AUTO 27007KT M1/4SM -RA FG OVC002 09/09 A3027 RMK AO2 RAB27 SLP268 P0000 60000 T00940089 10100 20083 53012

Metar display script from Saratoga-Weather.org



Visitor Map